Back to Top

Language: 

My Weather Underground Personal Weather Station Historical Data with Graphs...

Delerius Weather Station Historical Data
Daily Summary for January 4, 2016 Units:  English    Metric   Both
« Previous Day
Next Day »
Daily Weekly Monthly Yearly Custom
  High: Low: Average:
Temperature: 43.9 °F 38.8 °F 41.7 °F
Dew Point: 43.6 °F 38.0 °F 41.2 °F
Humidity: 99 % 96 % 98 %
Wind Speed: 7.0 mph 0.0 mph 3 mph
Wind Gust: 9.0 mph - -
Wind:- - ESE
Pressure: 28.97 in 28.94 in -
Precipitation: 0.09 in    
Historical Graphs
 
 
Tabular Data for January 4, 2016
Time Temperature Dew Point Pressure Wind Wind Speed Wind Gust Humidity Rainfall Rate (Hourly) solar Conditions
00:00 40.5 °F 39.4 °F 28.96 in Calm   6.0 mph 96 % 0.00 in 0 W/m2
00:05 40.5 °F 39.4 °F 28.96 in South 1.0 mph 6.0 mph 96 % 0.00 in 0 W/m2
00:15 40.6 °F 39.8 °F 28.97 in ESE 1.0 mph 4.0 mph 97 % 0.00 in 0 W/m2
00:25 40.4 °F 39.6 °F 28.97 in Calm   1.0 mph 97 % 0.00 in 0 W/m2
00:30 40.5 °F 39.7 °F 28.96 in Calm     97 % 0.00 in 0 W/m2
00:35 40.4 °F 39.6 °F 28.97 in Calm     97 % 0.00 in 0 W/m2
00:40 40.3 °F 39.3 °F 28.96 in Calm     96 % 0.00 in 0 W/m2
00:45 40.4 °F 39.6 °F 28.97 in Calm     97 % 0.00 in 0 W/m2
00:50 40.3 °F 39.5 °F 28.97 in Calm     97 % 0.00 in 0 W/m2
01:00 40.2 °F 39.4 °F 28.97 in Calm     97 % 0.00 in 0 W/m2
01:05 40.2 °F 39.4 °F 28.96 in Calm   5.0 mph 97 % 0.00 in 0 W/m2
01:10 40.3 °F 39.5 °F 28.96 in Calm   5.0 mph 97 % 0.00 in 0 W/m2
01:15 40.3 °F 39.5 °F 28.96 in East 1.0 mph 5.0 mph 97 % 0.00 in 0 W/m2
01:20 40.3 °F 39.5 °F 28.97 in ESE 1.0 mph 1.0 mph 97 % 0.00 in 0 W/m2
01:25 40.2 °F 39.4 °F 28.97 in ESE 1.0 mph 5.0 mph 97 % 0.00 in 0 W/m2
01:30 40.0 °F 39.2 °F 28.97 in ESE 1.0 mph 5.0 mph 97 % 0.00 in 0 W/m2
01:35 39.9 °F 39.1 °F 28.96 in ESE 1.0 mph 5.0 mph 97 % 0.00 in 0 W/m2
01:40 39.8 °F 39.0 °F 28.97 in SE 1.0 mph 1.0 mph 97 % 0.00 in 0 W/m2
01:45 39.8 °F 39.0 °F 28.97 in SE 1.0 mph 5.0 mph 97 % 0.00 in 0 W/m2
01:55 39.6 °F 38.8 °F 28.96 in SE 1.0 mph 5.0 mph 97 % 0.00 in 0 W/m2
02:00 39.6 °F 38.8 °F 28.96 in SE 1.0 mph 1.0 mph 97 % 0.00 in 0 W/m2
02:05 39.5 °F 38.7 °F 28.96 in SE 1.0 mph 5.0 mph 97 % 0.00 in 0 W/m2
02:15 39.3 °F 38.5 °F 28.96 in Calm   5.0 mph 97 % 0.00 in 0 W/m2
02:20 39.2 °F 38.4 °F 28.96 in Calm   5.0 mph 97 % 0.00 in 0 W/m2
02:25 39.2 °F 38.4 °F 28.96 in Calm   5.0 mph 97 % 0.00 in 0 W/m2
02:30 39.2 °F 38.4 °F 28.96 in Calm   5.0 mph 97 % 0.00 in 0 W/m2
02:40 39.1 °F 38.3 °F 28.96 in Calm   5.0 mph 97 % 0.00 in 0 W/m2
02:45 39.0 °F 38.2 °F 28.96 in Calm   5.0 mph 97 % 0.00 in 0 W/m2
02:50 38.9 °F 38.1 °F 28.96 in Calm   5.0 mph 97 % 0.00 in 0 W/m2
02:55 38.9 °F 38.1 °F 28.96 in Calm   5.0 mph 97 % 0.00 in 0 W/m2
03:00 38.8 °F 38.0 °F 28.97 in Calm   5.0 mph 97 % 0.00 in 0 W/m2
03:10 38.9 °F 38.1 °F 28.97 in Calm   5.0 mph 97 % 0.00 in 0 W/m2
03:15 39.1 °F 38.3 °F 28.97 in Calm   5.0 mph 97 % 0.00 in 0 W/m2
03:20 39.3 °F 38.5 °F 28.96 in SE 1.0 mph 5.0 mph 97 % 0.00 in 0 W/m2
03:25 39.5 °F 39.0 °F 28.96 in ESE 1.0 mph 5.0 mph 98 % 0.00 in 0 W/m2
03:30 39.6 °F 39.1 °F 28.96 in ESE 1.0 mph 5.0 mph 98 % 0.00 in 0 W/m2
03:35 39.6 °F 38.8 °F 28.96 in East 1.0 mph 5.0 mph 97 % 0.00 in 0 W/m2
03:45 39.7 °F 38.9 °F 28.96 in ESE 1.0 mph 5.0 mph 97 % 0.00 in 0 W/m2
03:50 39.8 °F 39.3 °F 28.96 in ESE 1.0 mph 5.0 mph 98 % 0.00 in 0 W/m2
03:55 39.8 °F 39.3 °F 28.95 in ESE 1.0 mph 5.0 mph 98 % 0.00 in 0 W/m2
04:00 39.8 °F 39.3 °F 28.96 in East 1.0 mph 5.0 mph 98 % 0.00 in 0 W/m2
04:05 39.9 °F 39.4 °F 28.96 in ESE 2.0 mph 5.0 mph 98 % 0.00 in 0 W/m2
04:15 39.7 °F 38.9 °F 28.96 in ESE 1.0 mph 5.0 mph 97 % 0.00 in 0 W/m2
04:20 39.7 °F 38.9 °F 28.96 in ESE 1.0 mph 5.0 mph 97 % 0.00 in 0 W/m2
04:25 39.7 °F 38.9 °F 28.96 in ESE 2.0 mph 5.0 mph 97 % 0.00 in 0 W/m2
04:30 39.8 °F 39.3 °F 28.96 in ESE 2.0 mph 2.0 mph 98 % 0.00 in 0 W/m2
04:35 39.9 °F 39.4 °F 28.96 in SE 2.0 mph 5.0 mph 98 % 0.00 in 0 W/m2
04:50 40.1 °F 39.6 °F 28.95 in SE 1.0 mph 5.0 mph 98 % 0.00 in 0 W/m2
04:55 40.1 °F 39.6 °F 28.95 in ESE 1.0 mph 5.0 mph 98 % 0.00 in 0 W/m2
05:00 40.2 °F 39.7 °F 28.95 in ESE 1.0 mph 1.0 mph 98 % 0.00 in 0 W/m2
05:05 40.2 °F 39.7 °F 28.95 in East 1.0 mph 4.0 mph 98 % 0.00 in 0 W/m2
05:10 40.3 °F 39.8 °F 28.95 in East 2.0 mph 2.0 mph 98 % 0.00 in 0 W/m2
05:20 40.4 °F 39.9 °F 28.95 in East 1.0 mph 5.0 mph 98 % 0.00 in 0 W/m2
05:25 40.4 °F 39.9 °F 28.95 in East 1.0 mph 5.0 mph 98 % 0.00 in 0 W/m2
05:30 40.4 °F 39.9 °F 28.95 in ESE 2.0 mph 2.0 mph 98 % 0.00 in 0 W/m2
05:35 40.5 °F 40.0 °F 28.95 in ESE 3.0 mph 4.0 mph 98 % 0.00 in 0 W/m2
05:45 40.5 °F 40.0 °F 28.95 in ENE 2.0 mph 5.0 mph 98 % 0.00 in 0 W/m2
05:50 40.5 °F 40.0 °F 28.95 in East 2.0 mph 2.0 mph 98 % 0.00 in 0 W/m2
05:55 40.5 °F 40.0 °F 28.95 in East 2.0 mph 4.0 mph 98 % 0.00 in 0 W/m2
06:05 40.5 °F 40.0 °F 28.95 in ESE 3.0 mph 5.0 mph 98 % 0.00 in 0 W/m2
06:10 40.5 °F 40.0 °F 28.95 in East 3.0 mph 3.0 mph 98 % 0.00 in 0 W/m2
06:15 40.4 °F 39.9 °F 28.95 in ENE 2.0 mph 5.0 mph 98 % 0.00 in 0 W/m2
06:20 40.4 °F 39.6 °F 28.95 in East 2.0 mph 5.0 mph 97 % 0.00 in 0 W/m2
06:30 40.2 °F 39.7 °F 28.95 in ENE 2.0 mph 2.0 mph 98 % 0.00 in 0 W/m2
06:35 40.2 °F 39.7 °F 28.95 in East 2.0 mph 5.0 mph 98 % 0.00 in 0 W/m2
06:40 40.1 °F 39.6 °F 28.95 in ENE 2.0 mph 6.0 mph 98 % 0.00 in 0 W/m2
06:45 40.1 °F 39.6 °F 28.95 in East 2.0 mph 6.0 mph 98 % 0.00 in 0 W/m2
06:50 40.0 °F 39.5 °F 28.95 in ESE 2.0 mph 5.0 mph 98 % 0.00 in 0 W/m2
07:00 40.0 °F 39.5 °F 28.95 in ENE 1.0 mph 5.0 mph 98 % 0.00 in 0 W/m2
07:05 40.0 °F 39.5 °F 28.95 in ENE 2.0 mph 6.0 mph 98 % 0.00 in 0 W/m2
07:10 39.9 °F 39.4 °F 28.95 in East 2.0 mph 5.0 mph 98 % 0.00 in 0 W/m2
07:15 39.9 °F 39.4 °F 28.95 in ENE 2.0 mph 5.0 mph 98 % 0.00 in 0 W/m2
07:20 39.9 °F 39.4 °F 28.95 in ESE 1.0 mph 5.0 mph 98 % 0.00 in 0 W/m2
07:25 40.0 °F 39.5 °F 28.95 in East 1.0 mph 5.0 mph 98 % 0.00 in 0 W/m2
07:35 40.0 °F 39.5 °F 28.95 in East 1.0 mph 5.0 mph 98 % 0.00 in 0 W/m2
07:40 40.0 °F 39.5 °F 28.95 in East 1.0 mph 1.0 mph 98 % 0.00 in 0 W/m2
07:45 40.0 °F 39.5 °F 28.96 in East 2.0 mph 2.0 mph 98 % 0.00 in 0 W/m2
07:50 40.0 °F 39.5 °F 28.96 in ENE 3.0 mph 5.0 mph 98 % 0.00 in 0 W/m2
07:55 40.1 °F 39.6 °F 28.96 in ESE 3.0 mph 5.0 mph 98 % 0.00 in 0 W/m2
08:05 40.1 °F 39.6 °F 28.96 in ESE 2.0 mph 5.0 mph 98 % 0.00 in 0 W/m2
08:10 40.1 °F 39.6 °F 28.95 in ENE 2.0 mph 2.0 mph 98 % 0.00 in 0 W/m2
08:15 40.1 °F 39.6 °F 28.96 in East 2.0 mph 5.0 mph 98 % 0.00 in 0 W/m2
08:20 40.2 °F 39.7 °F 28.96 in East 2.0 mph 2.0 mph 98 % 0.00 in 0 W/m2
08:25 40.2 °F 39.7 °F 28.96 in ESE 1.0 mph 5.0 mph 98 % 0.00 in 0 W/m2
08:30 40.3 °F 39.8 °F 28.96 in ESE 1.0 mph 1.0 mph 98 % 0.00 in 0 W/m2
08:40 40.3 °F 39.8 °F 28.96 in East 2.0 mph 5.0 mph 98 % 0.00 in 5 W/m2
08:45 40.4 °F 39.9 °F 28.96 in ESE 2.0 mph 5.0 mph 98 % 0.00 in 7 W/m2
08:50 40.4 °F 39.9 °F 28.97 in ESE 1.0 mph 5.0 mph 98 % 0.00 in 7 W/m2
08:55 40.5 °F 40.0 °F 28.97 in ESE 1.0 mph 5.0 mph 98 % 0.00 in 7 W/m2
09:00 40.5 °F 40.0 °F 28.97 in East 1.0 mph 5.0 mph 98 % 0.00 in 7 W/m2
09:10 40.5 °F 40.0 °F 28.96 in ESE 2.0 mph 2.0 mph 98 % 0.00 in 11 W/m2
09:15 40.6 °F 40.1 °F 28.97 in ESE 2.0 mph 4.0 mph 98 % 0.00 in 16 W/m2
09:20 40.6 °F 40.1 °F 28.96 in East 3.0 mph 3.0 mph 98 % 0.00 in 25 W/m2
09:25 40.6 °F 40.1 °F 28.97 in ESE 3.0 mph 5.0 mph 98 % 0.00 in 23 W/m2
09:30 40.7 °F 40.2 °F 28.97 in East 2.0 mph 2.0 mph 98 % 0.00 in 25 W/m2
09:35 40.7 °F 40.2 °F 28.96 in ESE 1.0 mph 5.0 mph 98 % 0.00 in 21 W/m2
09:45 40.8 °F 40.3 °F 28.97 in ENE 2.0 mph 5.0 mph 98 % 0.00 in 16 W/m2
09:50 40.8 °F 40.3 °F 28.96 in SE 2.0 mph 5.0 mph 98 % 0.00 in 19 W/m2
09:55 40.8 °F 40.3 °F 28.97 in East 2.0 mph 5.0 mph 98 % 0.00 in 18 W/m2
10:05 40.8 °F 40.3 °F 28.97 in ESE 4.0 mph 6.0 mph 98 % 0.00 in 32 W/m2
10:10 40.9 °F 40.4 °F 28.97 in East 5.0 mph 5.0 mph 98 % 0.00 in 28 W/m2
10:15 40.9 °F 40.4 °F 28.97 in ESE 5.0 mph 5.0 mph 98 % 0.00 in 18 W/m2
10:25 40.8 °F 40.3 °F 28.97 in ESE 4.0 mph 5.0 mph 98 % 0.00 in 32 W/m2
10:30 40.9 °F 40.4 °F 28.96 in ENE 3.0 mph 5.0 mph 98 % 0.00 in 28 W/m2
10:35 40.8 °F 40.3 °F 28.97 in ENE 4.0 mph 5.0 mph 98 % 0.00 in 30 W/m2
10:40 40.8 °F 40.3 °F 28.97 in NE 3.0 mph 5.0 mph 98 % 0.00 in 40 W/m2
10:50 40.9 °F 40.4 °F 28.97 in East 2.0 mph 5.0 mph 98 % 0.00 in 39 W/m2
10:55 40.9 °F 40.4 °F 28.97 in ESE 3.0 mph 6.0 mph 98 % 0.00 in 21 W/m2
11:00 40.8 °F 40.3 °F 28.97 in East 3.0 mph 3.0 mph 98 % 0.00 in 33 W/m2
11:05 40.9 °F 40.4 °F 28.97 in ESE 3.0 mph 5.0 mph 98 % 0.00 in 26 W/m2
11:10 40.9 °F 40.4 °F 28.96 in East 3.0 mph 5.0 mph 98 % 0.00 in 14 W/m2
11:15 40.9 °F 40.4 °F 28.96 in ENE 3.0 mph 5.0 mph 98 % 0.00 in 28 W/m2
11:25 40.9 °F 40.4 °F 28.96 in ENE 4.0 mph 5.0 mph 98 % 0.00 in 30 W/m2
11:30 40.9 °F 40.4 °F 28.96 in SE 4.0 mph 4.0 mph 98 % 0.00 in 25 W/m2
11:35 41.0 °F 40.5 °F 28.96 in East 3.0 mph 5.0 mph 98 % 0.00 in 25 W/m2
11:40 41.0 °F 40.5 °F 28.96 in East 3.0 mph 3.0 mph 98 % 0.00 in 39 W/m2
11:45 41.1 °F 40.6 °F 28.96 in ESE 3.0 mph 4.0 mph 98 % 0.00 in 40 W/m2
11:55 41.2 °F 40.7 °F 28.96 in ESE 4.0 mph 7.0 mph 98 % 0.00 in 26 W/m2
12:00 41.3 °F 40.8 °F 28.96 in ESE 4.0 mph 5.0 mph 98 % 0.00 in 23 W/m2
12:05 41.3 °F 40.8 °F 28.96 in ESE 5.0 mph 7.0 mph 98 % 0.00 in 19 W/m2
12:10 41.3 °F 40.8 °F 28.95 in ESE 6.0 mph 6.0 mph 98 % 0.00 in 23 W/m2
12:15 41.4 °F 40.9 °F 28.95 in SE 5.0 mph 6.0 mph 98 % 0.00 in 21 W/m2
12:20 41.4 °F 40.9 °F 28.95 in East 4.0 mph 5.0 mph 98 % 0.00 in 25 W/m2
12:30 41.5 °F 41.0 °F 28.95 in ESE 5.0 mph 6.0 mph 98 % 0.00 in 26 W/m2
12:40 41.6 °F 41.1 °F 28.95 in ESE 4.0 mph 4.0 mph 98 % 0.00 in 28 W/m2
12:45 41.7 °F 41.2 °F 28.95 in East 4.0 mph 6.0 mph 98 % 0.00 in 42 W/m2
12:50 41.8 °F 41.3 °F 28.95 in East 4.0 mph 4.0 mph 98 % 0.00 in 77 W/m2
13:00 42.0 °F 41.5 °F 28.95 in ESE 4.0 mph 6.0 mph 98 % 0.00 in 51 W/m2
13:05 42.1 °F 41.6 °F 28.95 in ESE 4.0 mph 7.0 mph 98 % 0.00 in 60 W/m2
13:10 42.2 °F 41.7 °F 28.95 in ESE 4.0 mph 5.0 mph 98 % 0.00 in 33 W/m2
13:15 42.3 °F 41.8 °F 28.95 in East 4.0 mph 5.0 mph 98 % 0.00 in 28 W/m2
13:20 42.3 °F 41.8 °F 28.95 in East 4.0 mph 4.0 mph 98 % 0.00 in 30 W/m2
13:25 42.4 °F 41.9 °F 28.95 in ESE 4.0 mph 5.0 mph 98 % 0.00 in 33 W/m2
13:35 42.5 °F 42.2 °F 28.95 in ESE 4.0 mph 6.0 mph 99 % 0.00 in 25 W/m2
13:40 42.5 °F 42.0 °F 28.95 in ESE 5.0 mph 5.0 mph 98 % 0.00 in 35 W/m2
13:45 42.6 °F 42.3 °F 28.95 in East 4.0 mph 5.0 mph 99 % 0.00 in 30 W/m2
13:50 42.6 °F 42.3 °F 28.95 in ESE 3.0 mph 3.0 mph 99 % 0.00 in 23 W/m2
14:00 42.7 °F 42.4 °F 28.95 in ESE 4.0 mph 5.0 mph 99 % 0.00 in 21 W/m2
14:05 42.7 °F 42.2 °F 28.94 in ESE 4.0 mph 5.0 mph 98 % 0.00 in 30 W/m2
14:10 42.8 °F 42.3 °F 28.94 in East 5.0 mph 5.0 mph 98 % 0.00 in 25 W/m2
14:20 42.8 °F 42.3 °F 28.94 in ESE 4.0 mph 5.0 mph 98 % 0.00 in 21 W/m2
14:25 42.9 °F 42.4 °F 28.94 in East 4.0 mph 5.0 mph 98 % 0.00 in 16 W/m2
14:30 42.9 °F 42.4 °F 28.94 in East 5.0 mph 5.0 mph 98 % 0.00 in 14 W/m2
14:40 42.9 °F 42.4 °F 28.94 in ESE 5.0 mph 5.0 mph 98 % 0.00 in 23 W/m2
14:45 42.9 °F 42.4 °F 28.94 in East 5.0 mph 5.0 mph 98 % 0.00 in 39 W/m2
14:50 43.0 °F 42.7 °F 28.94 in ESE 4.0 mph 6.0 mph 99 % 0.00 in 33 W/m2
14:55 43.1 °F 42.8 °F 28.94 in ESE 4.0 mph 7.0 mph 99 % 0.00 in 23 W/m2
15:00 43.1 °F 42.8 °F 28.94 in East 5.0 mph 6.0 mph 99 % 0.00 in 19 W/m2
15:05 43.2 °F 42.9 °F 28.94 in ESE 5.0 mph 6.0 mph 99 % 0.00 in 12 W/m2
15:15 43.1 °F 42.6 °F 28.94 in ENE 4.0 mph 6.0 mph 98 % 0.00 in 11 W/m2
15:20 43.1 °F 42.6 °F 28.94 in ESE 4.0 mph 5.0 mph 98 % 0.00 in 23 W/m2
15:25 43.1 °F 42.6 °F 28.94 in ESE 4.0 mph 7.0 mph 98 % 0.00 in 18 W/m2
15:30 43.1 °F 42.6 °F 28.94 in SE 5.0 mph 6.0 mph 98 % 0.00 in 12 W/m2
15:35 43.1 °F 42.6 °F 28.94 in ENE 6.0 mph 6.0 mph 98 % 0.00 in 5 W/m2
15:45 43.2 °F 42.7 °F 28.95 in ENE 4.0 mph 6.0 mph 98 % 0.00 in 0 W/m2
15:50 43.2 °F 42.7 °F 28.95 in ESE 4.0 mph 5.0 mph 98 % 0.00 in 0 W/m2
15:55 43.2 °F 42.7 °F 28.95 in ESE 4.0 mph 5.0 mph 98 % 0.00 in 0 W/m2
16:00 43.2 °F 42.7 °F 28.95 in ESE 5.0 mph 5.0 mph 98 % 0.00 in 0 W/m2
16:05 43.3 °F 42.8 °F 28.95 in East 5.0 mph 5.0 mph 98 % 0.00 in 0 W/m2
16:10 43.3 °F 42.8 °F 28.95 in ESE 5.0 mph 8.0 mph 98 % 0.00 in 0 W/m2
16:20 43.3 °F 42.8 °F 28.95 in SE 6.0 mph 6.0 mph 98 % 0.00 in 0 W/m2
16:25 43.3 °F 42.8 °F 28.95 in SE 5.0 mph 9.0 mph 98 % 0.00 in 0 W/m2
16:30 43.4 °F 42.9 °F 28.95 in ESE 5.0 mph 6.0 mph 98 % 0.00 in 0 W/m2
16:35 43.4 °F 42.9 °F 28.95 in ESE 6.0 mph 7.0 mph 98 % 0.00 in 0 W/m2
16:40 43.4 °F 42.9 °F 28.95 in East 6.0 mph 6.0 mph 98 % 0.00 in 0 W/m2
16:50 43.4 °F 42.9 °F 28.95 in East 6.0 mph 6.0 mph 98 % 0.00 in 0 W/m2
16:55 43.5 °F 43.0 °F 28.95 in ESE 6.0 mph 6.0 mph 98 % 0.00 in 0 W/m2
17:00 43.5 °F 43.0 °F 28.95 in SE 5.0 mph 5.0 mph 98 % 0.00 in 0 W/m2
17:05 43.6 °F 43.1 °F 28.95 in SE 5.0 mph 8.0 mph 98 % 0.00 in 0 W/m2
17:10 43.5 °F 43.0 °F 28.95 in ESE 6.0 mph 6.0 mph 98 % 0.00 in 0 W/m2
17:15 43.5 °F 43.0 °F 28.95 in ESE 6.0 mph 6.0 mph 98 % 0.00 in 0 W/m2
17:30 43.6 °F 43.1 °F 28.95 in SE 4.0 mph 5.0 mph 98 % 0.00 in 0 W/m2
17:35 43.6 °F 43.1 °F 28.95 in ESE 5.0 mph 5.0 mph 98 % 0.00 in 0 W/m2
17:40 43.7 °F 43.4 °F 28.95 in ESE 4.0 mph 4.0 mph 99 % 0.00 in 0 W/m2
17:45 43.7 °F 43.4 °F 28.95 in ESE 4.0 mph 7.0 mph 99 % 0.00 in 0 W/m2
17:55 43.7 °F 43.4 °F 28.96 in SE 5.0 mph 5.0 mph 99 % 0.00 in 0 W/m2
18:00 43.7 °F 43.4 °F 28.95 in ESE 4.0 mph 6.0 mph 99 % 0.00 in 0 W/m2
18:05 43.8 °F 43.5 °F 28.95 in SE 4.0 mph 6.0 mph 99 % 0.00 in 0 W/m2
18:10 43.8 °F 43.5 °F 28.95 in SE 4.0 mph 5.0 mph 99 % 0.00 in 0 W/m2
18:20 43.7 °F 43.4 °F 28.95 in ESE 5.0 mph 7.0 mph 99 % 0.00 in 0 W/m2
18:25 43.7 °F 43.2 °F 28.95 in SE 5.0 mph 7.0 mph 98 % 0.00 in 0 W/m2
18:30 43.7 °F 43.2 °F 28.95 in SE 5.0 mph 5.0 mph 98 % 0.00 in 0 W/m2
18:40 43.8 °F 43.3 °F 28.95 in ESE 6.0 mph 6.0 mph 98 % 0.00 in 0 W/m2
18:45 43.8 °F 43.3 °F 28.95 in ESE 5.0 mph 6.0 mph 98 % 0.00 in 0 W/m2
18:50 43.8 °F 43.5 °F 28.95 in ESE 4.0 mph 4.0 mph 99 % 0.00 in 0 W/m2
18:55 43.8 °F 43.5 °F 28.95 in ESE 4.0 mph 5.0 mph 99 % 0.00 in 0 W/m2
19:05 43.8 °F 43.5 °F 28.95 in East 3.0 mph 5.0 mph 99 % 0.00 in 0 W/m2
19:10 43.8 °F 43.3 °F 28.95 in ESE 4.0 mph 5.0 mph 98 % 0.00 in 0 W/m2
19:15 43.9 °F 43.4 °F 28.96 in ESE 5.0 mph 6.0 mph 98 % 0.00 in 0 W/m2
19:20 43.9 °F 43.4 °F 28.96 in SE 4.0 mph 5.0 mph 98 % 0.00 in 0 W/m2
19:25 43.9 °F 43.4 °F 28.95 in ESE 4.0 mph 5.0 mph 98 % 0.00 in 0 W/m2
19:35 43.9 °F 43.4 °F 28.96 in SE 4.0 mph 7.0 mph 98 % 0.00 in 0 W/m2
19:40 43.9 °F 43.4 °F 28.96 in ESE 5.0 mph 5.0 mph 98 % 0.00 in 0 W/m2
19:45 43.9 °F 43.4 °F 28.96 in SE 4.0 mph 5.0 mph 98 % 0.00 in 0 W/m2
19:50 43.9 °F 43.4 °F 28.96 in SE 4.0 mph 4.0 mph 98 % 0.00 in 0 W/m2
19:55 43.9 °F 43.4 °F 28.96 in ESE 4.0 mph 5.0 mph 98 % 0.00 in 0 W/m2
20:00 43.9 °F 43.4 °F 28.96 in SE 4.0 mph 4.0 mph 98 % 0.00 in 0 W/m2
20:10 43.8 °F 43.3 °F 28.96 in ESE 3.0 mph 5.0 mph 98 % 0.00 in 0 W/m2
20:15 43.8 °F 43.3 °F 28.96 in East 2.0 mph 5.0 mph 98 % 0.00 in 0 W/m2
20:20 43.8 °F 43.3 °F 28.96 in ESE 3.0 mph 5.0 mph 98 % 0.00 in 0 W/m2
20:25 43.8 °F 43.3 °F 28.96 in ESE 3.0 mph 5.0 mph 98 % 0.00 in 0 W/m2
20:30 43.8 °F 43.3 °F 28.96 in ESE 3.0 mph 5.0 mph 98 % 0.00 in 0 W/m2
20:40 43.8 °F 43.3 °F 28.96 in ESE 4.0 mph 4.0 mph 98 % 0.00 in 0 W/m2
20:45 43.8 °F 43.5 °F 28.95 in East 3.0 mph 5.0 mph 99 % 0.00 in 0 W/m2
20:50 43.8 °F 43.3 °F 28.96 in East 3.0 mph 3.0 mph 98 % 0.00 in 0 W/m2
20:55 43.7 °F 43.2 °F 28.96 in East 3.0 mph 5.0 mph 98 % 0.00 in 0 W/m2
21:00 43.7 °F 43.2 °F 28.96 in ESE 2.0 mph 5.0 mph 98 % 0.00 in 0 W/m2
21:05 43.7 °F 43.2 °F 28.96 in ENE 2.0 mph 5.0 mph 98 % 0.00 in 0 W/m2
21:15 43.7 °F 43.4 °F 28.95 in ESE 3.0 mph 5.0 mph 99 % 0.00 in 0 W/m2
21:25 43.7 °F 43.4 °F 28.95 in ESE 3.0 mph 5.0 mph 99 % 0.05 in 0 W/m2
21:30 43.8 °F 43.5 °F 28.95 in ESE 3.0 mph 5.0 mph 99 % 0.05 in 0 W/m2
21:35 43.7 °F 43.4 °F 28.95 in ESE 3.0 mph 5.0 mph 99 % 0.04 in 0 W/m2
21:45 43.7 °F 43.4 °F 28.95 in East 4.0 mph 5.0 mph 99 % 0.00 in 0 W/m2
21:50 43.8 °F 43.5 °F 28.95 in SE 4.0 mph 6.0 mph 99 % 0.00 in 0 W/m2
21:55 43.8 °F 43.5 °F 28.96 in East 5.0 mph 6.0 mph 99 % 0.00 in 0 W/m2
22:00 43.8 °F 43.5 °F 28.95 in ESE 5.0 mph 5.0 mph 99 % 0.00 in 0 W/m2
22:05 43.8 °F 43.5 °F 28.95 in East 4.0 mph 5.0 mph 99 % 0.00 in 0 W/m2
22:10 43.8 °F 43.5 °F 28.95 in ESE 4.0 mph 5.0 mph 99 % 0.00 in 0 W/m2
22:20 43.8 °F 43.5 °F 28.95 in ESE 3.0 mph 5.0 mph 99 % 0.00 in 0 W/m2
22:25 43.8 °F 43.5 °F 28.95 in ENE 4.0 mph 6.0 mph 99 % 0.00 in 0 W/m2
22:30 43.8 °F 43.5 °F 28.95 in East 4.0 mph 4.0 mph 99 % 0.00 in 0 W/m2
22:35 43.8 °F 43.5 °F 28.95 in ESE 3.0 mph 5.0 mph 99 % 0.00 in 0 W/m2
22:40 43.9 °F 43.6 °F 28.95 in ENE 3.0 mph 7.0 mph 99 % 0.00 in 0 W/m2
22:50 43.9 °F 43.6 °F 28.95 in ESE 5.0 mph 5.0 mph 99 % 0.00 in 0 W/m2
22:55 43.9 °F 43.6 °F 28.95 in East 5.0 mph 5.0 mph 99 % 0.00 in 0 W/m2
23:00 43.9 °F 43.6 °F 28.95 in ESE 4.0 mph 5.0 mph 99 % 0.00 in 0 W/m2
23:05 43.9 °F 43.6 °F 28.95 in ESE 5.0 mph 5.0 mph 99 % 0.00 in 0 W/m2
23:15 43.8 °F 43.5 °F 28.94 in ESE 7.0 mph 9.0 mph 99 % 0.00 in 0 W/m2
23:20 43.8 °F 43.5 °F 28.94 in SE 7.0 mph 7.0 mph 99 % 0.00 in 0 W/m2
23:25 43.8 °F 43.5 °F 28.94 in ESE 7.0 mph 7.0 mph 99 % 0.15 in 0 W/m2
23:35 43.8 °F 43.5 °F 28.95 in ESE 6.0 mph 7.0 mph 99 % 0.08 in 0 W/m2
23:40 43.7 °F 43.4 °F 28.95 in ESE 6.0 mph 9.0 mph 99 % 0.12 in 0 W/m2
23:45 43.7 °F 43.4 °F 28.95 in ESE 6.0 mph 9.0 mph 99 % 0.10 in 0 W/m2
23:50 43.7 °F 43.4 °F 28.94 in ESE 5.0 mph 6.0 mph 99 % 0.11 in 0 W/m2
Delerius-Weather
Compliments of Weather Underground - 2 mb

Data updates at regular intervals.